sensor_id;sensor_type;location;lat;lon;timestamp;pressure;altitude;pressure_sealevel;temperature;humidity
10706;BME280;5404;42.656;23.336;2023-05-08T00:01:08;95014.31;;;13.26;100.00
10706;BME280;5404;42.656;23.336;2023-05-08T00:03:33;95008.72;;;13.14;100.00
10706;BME280;5404;42.656;23.336;2023-05-08T00:06:02;95022.91;;;13.15;100.00
10706;BME280;5404;42.656;23.336;2023-05-08T00:08:28;95021.94;;;13.11;100.00
10706;BME280;5404;42.656;23.336;2023-05-08T00:10:55;95023.53;;;13.12;100.00
10706;BME280;5404;42.656;23.336;2023-05-08T00:13:20;94964.53;;;12.72;100.00
10706;BME280;5404;42.656;23.336;2023-05-08T00:15:45;95029.91;;;13.02;100.00
10706;BME280;5404;42.656;23.336;2023-05-08T00:18:11;95036.63;;;13.00;100.00
10706;BME280;5404;42.656;23.336;2023-05-08T00:20:36;95034.84;;;12.95;100.00
10706;BME280;5404;42.656;23.336;2023-05-08T00:23:02;95046.16;;;12.92;100.00
10706;BME280;5404;42.656;23.336;2023-05-08T00:25:28;95043.59;;;12.87;100.00
10706;BME280;5404;42.656;23.336;2023-05-08T00:27:55;95053.72;;;12.76;100.00
10706;BME280;5404;42.656;23.336;2023-05-08T00:30:22;95046.13;;;12.70;100.00
10706;BME280;5404;42.656;23.336;2023-05-08T00:32:49;95051.09;;;12.63;100.00
10706;BME280;5404;42.656;23.336;2023-05-08T00:35:15;95059.22;;;12.58;100.00
10706;BME280;5404;42.656;23.336;2023-05-08T00:37:41;95060.31;;;12.57;100.00
10706;BME280;5404;42.656;23.336;2023-05-08T00:40:08;95054.97;;;12.57;100.00
10706;BME280;5404;42.656;23.336;2023-05-08T00:42:36;95054.19;;;12.56;100.00
10706;BME280;5404;42.656;23.336;2023-05-08T00:45:02;95059.03;;;12.54;100.00
10706;BME280;5404;42.656;23.336;2023-05-08T00:47:31;95060.72;;;12.50;100.00
10706;BME280;5404;42.656;23.336;2023-05-08T00:49:58;95058.94;;;12.46;100.00
10706;BME280;5404;42.656;23.336;2023-05-08T00:52:25;95064.28;;;12.46;100.00
10706;BME280;5404;42.656;23.336;2023-05-08T00:54:52;95051.84;;;12.28;100.00
10706;BME280;5404;42.656;23.336;2023-05-08T00:57:18;95068.84;;;12.32;100.00
10706;BME280;5404;42.656;23.336;2023-05-08T00:59:44;95070.75;;;12.31;100.00
10706;BME280;5404;42.656;23.336;2023-05-08T01:02:11;95075.69;;;12.24;100.00
10706;BME280;5404;42.656;23.336;2023-05-08T01:04:37;95080.84;;;12.21;100.00
10706;BME280;5404;42.656;23.336;2023-05-08T01:07:05;95079.03;;;12.16;100.00
10706;BME280;5404;42.656;23.336;2023-05-08T01:09:31;95065.03;;;12.11;100.00
10706;BME280;5404;42.656;23.336;2023-05-08T01:12:17;95077.47;;;12.15;100.00
10706;BME280;5404;42.656;23.336;2023-05-08T01:14:59;95082.63;;;12.12;100.00
10706;BME280;5404;42.656;23.336;2023-05-08T01:17:37;95085.00;;;12.13;100.00
10706;BME280;5404;42.656;23.336;2023-05-08T01:20:29;95080.53;;;12.09;100.00
10706;BME280;5404;42.656;23.336;2023-05-08T01:26:06;95090.22;;;12.05;100.00
10706;BME280;5404;42.656;23.336;2023-05-08T01:29:13;95081.00;;;11.97;100.00
10706;BME280;5404;42.656;23.336;2023-05-08T01:34:33;95086.56;;;11.87;100.00
10706;BME280;5404;42.656;23.336;2023-05-08T01:37:01;95071.72;;;11.81;100.00
10706;BME280;5404;42.656;23.336;2023-05-08T01:39:33;95086.25;;;11.89;100.00
10706;BME280;5404;42.656;23.336;2023-05-08T01:44:48;95078.53;;;11.87;100.00
10706;BME280;5404;42.656;23.336;2023-05-08T01:47:19;95078.53;;;11.87;100.00
10706;BME280;5404;42.656;23.336;2023-05-08T01:50:00;95064.09;;;11.75;100.00
10706;BME280;5404;42.656;23.336;2023-05-08T01:52:36;95086.84;;;11.86;100.00
10706;BME280;5404;42.656;23.336;2023-05-08T01:55:08;95075.38;;;11.85;100.00
10706;BME280;5404;42.656;23.336;2023-05-08T01:57:39;95070.81;;;11.86;100.00
10706;BME280;5404;42.656;23.336;2023-05-08T02:00:07;95074.81;;;11.88;100.00
10706;BME280;5404;42.656;23.336;2023-05-08T02:02:36;95092.38;;;11.89;100.00
10706;BME280;5404;42.656;23.336;2023-05-08T02:05:04;95087.84;;;11.90;100.00
10706;BME280;5404;42.656;23.336;2023-05-08T02:07:31;95070.91;;;11.81;100.00
10706;BME280;5404;42.656;23.336;2023-05-08T02:10:01;95067.53;;;11.75;100.00
10706;BME280;5404;42.656;23.336;2023-05-08T02:12:30;95057.06;;;11.65;100.00
10706;BME280;5404;42.656;23.336;2023-05-08T02:14:58;95080.59;;;11.77;100.00
10706;BME280;5404;42.656;23.336;2023-05-08T02:17:25;95080.19;;;11.69;100.00
10706;BME280;5404;42.656;23.336;2023-05-08T02:19:55;95086.03;;;11.71;100.00
10706;BME280;5404;42.656;23.336;2023-05-08T02:22:24;95090.31;;;11.73;100.00
10706;BME280;5404;42.656;23.336;2023-05-08T02:24:53;95006.91;;;11.16;100.00
10706;BME280;5404;42.656;23.336;2023-05-08T02:27:24;95087.94;;;11.71;100.00
10706;BME280;5404;42.656;23.336;2023-05-08T02:29:52;95100.97;;;11.73;100.00
10706;BME280;5404;42.656;23.336;2023-05-08T02:32:19;95080.97;;;11.70;100.00
10706;BME280;5404;42.656;23.336;2023-05-08T02:34:47;95090.66;;;11.66;100.00
10706;BME280;5404;42.656;23.336;2023-05-08T02:37:15;95090.97;;;11.64;100.00
10706;BME280;5404;42.656;23.336;2023-05-08T02:39:44;95088.56;;;11.63;100.00
10706;BME280;5404;42.656;23.336;2023-05-08T02:42:11;95086.78;;;11.58;100.00
10706;BME280;5404;42.656;23.336;2023-05-08T02:44:37;95089.75;;;11.57;100.00
10706;BME280;5404;42.656;23.336;2023-05-08T02:49:49;95096.06;;;11.61;100.00
10706;BME280;5404;42.656;23.336;2023-05-08T02:52:28;95087.38;;;11.55;100.00
10706;BME280;5404;42.656;23.336;2023-05-08T02:55:02;95093.69;;;11.59;100.00
10706;BME280;5404;42.656;23.336;2023-05-08T02:57:52;95099.53;;;11.61;100.00
10706;BME280;5404;42.656;23.336;2023-05-08T03:00:31;95092.00;;;11.50;100.00
10706;BME280;5404;42.656;23.336;2023-05-08T03:03:20;95108.50;;;11.52;100.00
10706;BME280;5404;42.656;23.336;2023-05-08T03:05:53;95100.84;;;11.45;100.00
10706;BME280;5404;42.656;23.336;2023-05-08T03:08:28;95098.00;;;11.42;100.00
10706;BME280;5404;42.656;23.336;2023-05-08T03:10:57;95093.66;;;11.46;100.00
10706;BME280;5404;42.656;23.336;2023-05-08T03:13:26;95097.13;;;11.46;100.00
10706;BME280;5404;42.656;23.336;2023-05-08T03:15:56;95093.44;;;11.42;100.00
10706;BME280;5404;42.656;23.336;2023-05-08T03:18:27;95107.38;;;11.39;100.00
10706;BME280;5404;42.656;23.336;2023-05-08T03:20:57;95111.13;;;11.38;100.00
10706;BME280;5404;42.656;23.336;2023-05-08T03:23:25;95106.47;;;11.44;100.00
10706;BME280;5404;42.656;23.336;2023-05-08T03:25:54;95101.63;;;11.32;100.00
10706;BME280;5404;42.656;23.336;2023-05-08T03:28:22;95111.59;;;11.40;100.00
10706;BME280;5404;42.656;23.336;2023-05-08T03:30:49;95107.50;;;11.48;100.00
10706;BME280;5404;42.656;23.336;2023-05-08T03:33:16;95115.53;;;11.61;100.00
10706;BME280;5404;42.656;23.336;2023-05-08T03:35:43;95094.78;;;11.58;100.00
10706;BME280;5404;42.656;23.336;2023-05-08T03:38:09;95087.50;;;11.64;100.00
10706;BME280;5404;42.656;23.336;2023-05-08T03:40:35;95111.69;;;11.86;100.00
10706;BME280;5404;42.656;23.336;2023-05-08T03:43:06;95062.09;;;11.66;100.00
10706;BME280;5404;42.656;23.336;2023-05-08T03:45:37;95110.78;;;12.04;100.00
10706;BME280;5404;42.656;23.336;2023-05-08T03:48:07;95111.59;;;12.05;100.00
10706;BME280;5404;42.656;23.336;2023-05-08T03:50:34;95112.69;;;12.17;100.00
10706;BME280;5404;42.656;23.336;2023-05-08T03:53:00;95112.69;;;12.31;100.00
10706;BME280;5404;42.656;23.336;2023-05-08T03:55:26;95103.28;;;12.33;100.00
10706;BME280;5404;42.656;23.336;2023-05-08T03:58:31;95096.34;;;12.46;100.00
10706;BME280;5404;42.656;23.336;2023-05-08T04:06:13;95096.19;;;12.78;100.00
10706;BME280;5404;42.656;23.336;2023-05-08T04:12:05;95102.91;;;12.89;100.00
10706;BME280;5404;42.656;23.336;2023-05-08T04:14:42;95104.59;;;12.85;100.00
10706;BME280;5404;42.656;23.336;2023-05-08T04:17:09;95101.06;;;12.89;100.00
10706;BME280;5404;42.656;23.336;2023-05-08T04:19:45;95102.81;;;12.94;100.00
10706;BME280;5404;42.656;23.336;2023-05-08T04:22:16;95107.75;;;13.01;100.00
10706;BME280;5404;42.656;23.336;2023-05-08T04:24:45;95092.31;;;12.98;100.00
10706;BME280;5404;42.656;23.336;2023-05-08T04:27:12;95103.59;;;13.08;100.00
10706;BME280;5404;42.656;23.336;2023-05-08T04:29:38;95102.00;;;13.07;100.00
10706;BME280;5404;42.656;23.336;2023-05-08T04:32:04;95101.72;;;13.09;100.00
10706;BME280;5404;42.656;23.336;2023-05-08T04:34:31;95103.97;;;13.15;100.00
10706;BME280;5404;42.656;23.336;2023-05-08T04:36:57;95090.47;;;13.20;100.00
10706;BME280;5404;42.656;23.336;2023-05-08T04:39:23;95088.06;;;13.32;100.00
10706;BME280;5404;42.656;23.336;2023-05-08T04:41:50;95001.13;;;12.85;100.00
10706;BME280;5404;42.656;23.336;2023-05-08T04:44:16;95081.78;;;13.37;100.00
10706;BME280;5404;42.656;23.336;2023-05-08T04:46:42;95083.78;;;13.53;100.00
10706;BME280;5404;42.656;23.336;2023-05-08T04:49:09;95044.84;;;13.47;100.00
10706;BME280;5404;42.656;23.336;2023-05-08T04:51:34;95074.13;;;13.74;100.00
10706;BME280;5404;42.656;23.336;2023-05-08T04:54:00;95063.94;;;13.85;100.00
10706;BME280;5404;42.656;23.336;2023-05-08T04:56:25;95059.56;;;13.89;100.00
10706;BME280;5404;42.656;23.336;2023-05-08T04:58:51;95059.47;;;14.02;100.00
10706;BME280;5404;42.656;23.336;2023-05-08T05:01:16;95059.84;;;14.18;100.00
10706;BME280;5404;42.656;23.336;2023-05-08T05:03:42;95059.53;;;14.20;100.00
10706;BME280;5404;42.656;23.336;2023-05-08T05:06:07;95051.84;;;14.27;100.00
10706;BME280;5404;42.656;23.336;2023-05-08T05:08:33;95050.31;;;14.34;100.00
10706;BME280;5404;42.656;23.336;2023-05-08T05:10:58;95053.47;;;14.45;100.00
10706;BME280;5404;42.656;23.336;2023-05-08T05:13:24;95037.25;;;14.50;100.00
10706;BME280;5404;42.656;23.336;2023-05-08T05:15:49;95035.69;;;14.57;100.00
10706;BME280;5404;42.656;23.336;2023-05-08T05:18:19;95038.22;;;14.62;100.00
10706;BME280;5404;42.656;23.336;2023-05-08T05:20:44;95034.13;;;14.65;100.00
10706;BME280;5404;42.656;23.336;2023-05-08T05:23:10;95020.25;;;14.71;100.00
10706;BME280;5404;42.656;23.336;2023-05-08T05:25:36;95031.44;;;14.65;100.00
10706;BME280;5404;42.656;23.336;2023-05-08T05:28:02;95028.78;;;14.73;100.00
10706;BME280;5404;42.656;23.336;2023-05-08T05:30:27;95020.25;;;14.80;100.00
10706;BME280;5404;42.656;23.336;2023-05-08T05:32:52;95024.97;;;14.91;100.00
10706;BME280;5404;42.656;23.336;2023-05-08T05:35:18;95026.72;;;15.04;100.00
10706;BME280;5404;42.656;23.336;2023-05-08T05:37:44;95031.28;;;15.12;100.00
10706;BME280;5404;42.656;23.336;2023-05-08T05:40:10;95025.59;;;15.23;100.00
10706;BME280;5404;42.656;23.336;2023-05-08T05:42:37;95028.44;;;15.26;100.00
10706;BME280;5404;42.656;23.336;2023-05-08T05:45:03;95022.13;;;15.39;100.00
10706;BME280;5404;42.656;23.336;2023-05-08T05:47:28;95013.25;;;15.39;100.00
10706;BME280;5404;42.656;23.336;2023-05-08T05:49:54;95024.66;;;15.44;100.00
10706;BME280;5404;42.656;23.336;2023-05-08T05:52:19;95019.91;;;15.50;100.00
10706;BME280;5404;42.656;23.336;2023-05-08T05:54:45;95008.41;;;15.41;100.00
10706;BME280;5404;42.656;23.336;2023-05-08T05:57:13;95019.63;;;15.43;100.00
10706;BME280;5404;42.656;23.336;2023-05-08T05:59:39;94978.06;;;15.32;100.00
10706;BME280;5404;42.656;23.336;2023-05-08T06:02:06;95015.59;;;15.66;100.00
10706;BME280;5404;42.656;23.336;2023-05-08T06:04:32;95002.84;;;15.54;100.00
10706;BME280;5404;42.656;23.336;2023-05-08T06:06:58;95000.13;;;15.63;100.00
10706;BME280;5404;42.656;23.336;2023-05-08T06:09:23;95002.28;;;15.78;100.00
10706;BME280;5404;42.656;23.336;2023-05-08T06:11:49;94983.63;;;15.81;100.00
10706;BME280;5404;42.656;23.336;2023-05-08T06:14:14;94998.84;;;16.06;100.00
10706;BME280;5404;42.656;23.336;2023-05-08T06:16:41;95003.69;;;16.21;100.00
10706;BME280;5404;42.656;23.336;2023-05-08T06:19:07;94985.59;;;16.30;100.00
10706;BME280;5404;42.656;23.336;2023-05-08T06:21:32;94986.66;;;16.38;100.00
10706;BME280;5404;42.656;23.336;2023-05-08T06:23:59;94919.31;;;16.05;100.00
10706;BME280;5404;42.656;23.336;2023-05-08T06:26:25;94991.69;;;16.48;100.00
10706;BME280;5404;42.656;23.336;2023-05-08T06:28:51;94980.66;;;16.62;100.00
10706;BME280;5404;42.656;23.336;2023-05-08T06:31:17;94987.31;;;16.85;100.00
10706;BME280;5404;42.656;23.336;2023-05-08T06:33:43;94991.28;;;16.99;100.00
10706;BME280;5404;42.656;23.336;2023-05-08T06:36:09;94992.16;;;17.12;100.00
10706;BME280;5404;42.656;23.336;2023-05-08T06:38:34;94990.63;;;17.23;100.00
10706;BME280;5404;42.656;23.336;2023-05-08T06:41:00;94986.00;;;17.23;100.00
10706;BME280;5404;42.656;23.336;2023-05-08T06:43:25;94959.59;;;17.05;100.00
10706;BME280;5404;42.656;23.336;2023-05-08T06:45:51;94991.31;;;17.32;100.00
10706;BME280;5404;42.656;23.336;2023-05-08T06:48:17;94985.59;;;17.54;100.00
10706;BME280;5404;42.656;23.336;2023-05-08T06:50:43;94977.00;;;17.73;100.00
10706;BME280;5404;42.656;23.336;2023-05-08T06:53:09;94981.72;;;18.00;100.00
10706;BME280;5404;42.656;23.336;2023-05-08T06:55:35;94992.75;;;18.19;100.00
10706;BME280;5404;42.656;23.336;2023-05-08T06:58:00;94978.13;;;18.32;100.00
10706;BME280;5404;42.656;23.336;2023-05-08T07:00:26;94978.81;;;18.53;100.00
10706;BME280;5404;42.656;23.336;2023-05-08T07:02:51;94987.91;;;18.73;100.00
10706;BME280;5404;42.656;23.336;2023-05-08T07:05:17;94994.38;;;18.84;100.00
10706;BME280;5404;42.656;23.336;2023-05-08T07:07:44;94979.44;;;18.86;100.00
10706;BME280;5404;42.656;23.336;2023-05-08T07:10:09;94987.81;;;19.09;100.00
10706;BME280;5404;42.656;23.336;2023-05-08T07:12:35;94991.41;;;19.01;100.00
10706;BME280;5404;42.656;23.336;2023-05-08T07:15:00;94989.97;;;19.03;100.00
10706;BME280;5404;42.656;23.336;2023-05-08T07:17:26;94983.75;;;19.03;100.00
10706;BME280;5404;42.656;23.336;2023-05-08T07:19:51;94984.50;;;19.15;100.00
10706;BME280;5404;42.656;23.336;2023-05-08T07:22:17;94988.06;;;19.31;100.00
10706;BME280;5404;42.656;23.336;2023-05-08T07:24:43;94990.97;;;19.26;100.00
10706;BME280;5404;42.656;23.336;2023-05-08T07:27:09;94994.03;;;19.25;100.00
10706;BME280;5404;42.656;23.336;2023-05-08T07:29:34;94991.28;;;19.09;100.00
10706;BME280;5404;42.656;23.336;2023-05-08T07:32:01;94952.97;;;18.92;100.00
10706;BME280;5404;42.656;23.336;2023-05-08T07:34:27;94991.72;;;19.11;100.00
10706;BME280;5404;42.656;23.336;2023-05-08T07:36:52;94988.09;;;19.19;100.00
10706;BME280;5404;42.656;23.336;2023-05-08T07:39:18;94990.88;;;19.35;100.00
10706;BME280;5404;42.656;23.336;2023-05-08T07:41:45;94993.00;;;19.41;100.00
10706;BME280;5404;42.656;23.336;2023-05-08T07:44:10;94980.34;;;19.45;100.00
10706;BME280;5404;42.656;23.336;2023-05-08T07:46:36;94989.88;;;19.55;100.00
10706;BME280;5404;42.656;23.336;2023-05-08T07:49:02;94983.63;;;19.66;100.00
10706;BME280;5404;42.656;23.336;2023-05-08T07:51:28;94997.34;;;20.05;100.00
10706;BME280;5404;42.656;23.336;2023-05-08T07:53:54;94991.59;;;20.06;100.00
10706;BME280;5404;42.656;23.336;2023-05-08T07:56:21;95002.84;;;19.93;100.00
10706;BME280;5404;42.656;23.336;2023-05-08T07:58:49;94981.53;;;19.76;100.00
10706;BME280;5404;42.656;23.336;2023-05-08T08:01:15;95006.59;;;19.88;100.00
10706;BME280;5404;42.656;23.336;2023-05-08T08:03:43;95003.63;;;19.93;100.00
10706;BME280;5404;42.656;23.336;2023-05-08T08:06:17;95000.94;;;20.24;100.00
10706;BME280;5404;42.656;23.336;2023-05-08T08:08:42;94995.88;;;20.23;100.00
10706;BME280;5404;42.656;23.336;2023-05-08T08:11:08;95002.69;;;20.32;100.00
10706;BME280;5404;42.656;23.336;2023-05-08T08:13:35;95000.75;;;20.48;100.00
10706;BME280;5404;42.656;23.336;2023-05-08T08:16:01;95007.09;;;20.71;100.00
10706;BME280;5404;42.656;23.336;2023-05-08T08:18:28;95007.13;;;20.91;100.00
10706;BME280;5404;42.656;23.336;2023-05-08T08:20:54;94999.78;;;20.91;100.00
10706;BME280;5404;42.656;23.336;2023-05-08T08:23:21;95001.78;;;20.94;100.00
10706;BME280;5404;42.656;23.336;2023-05-08T08:25:46;94995.88;;;20.88;100.00
10706;BME280;5404;42.656;23.336;2023-05-08T08:28:12;94989.94;;;20.83;100.00
10706;BME280;5404;42.656;23.336;2023-05-08T08:30:37;94992.63;;;20.99;100.00
10706;BME280;5404;42.656;23.336;2023-05-08T08:33:03;94989.94;;;21.18;100.00
10706;BME280;5404;42.656;23.336;2023-05-08T08:35:31;94986.72;;;21.12;100.00
10706;BME280;5404;42.656;23.336;2023-05-08T08:37:58;94991.06;;;21.55;100.00
10706;BME280;5404;42.656;23.336;2023-05-08T08:40:24;94969.31;;;21.74;100.00
10706;BME280;5404;42.656;23.336;2023-05-08T08:42:51;94978.59;;;21.92;100.00
10706;BME280;5404;42.656;23.336;2023-05-08T08:45:18;94975.41;;;22.09;100.00
10706;BME280;5404;42.656;23.336;2023-05-08T08:47:44;94971.38;;;22.00;100.00
10706;BME280;5404;42.656;23.336;2023-05-08T08:50:12;94981.25;;;21.88;100.00
10706;BME280;5404;42.656;23.336;2023-05-08T08:55:14;94975.97;;;21.76;100.00
10706;BME280;5404;42.656;23.336;2023-05-08T08:57:59;94941.63;;;21.42;100.00
10706;BME280;5404;42.656;23.336;2023-05-08T09:00:29;94956.53;;;21.74;100.00
10706;BME280;5404;42.656;23.336;2023-05-08T09:02:56;94956.41;;;21.86;100.00
10706;BME280;5404;42.656;23.336;2023-05-08T09:05:22;94950.78;;;21.98;100.00
10706;BME280;5404;42.656;23.336;2023-05-08T09:07:52;94949.34;;;21.82;100.00
10706;BME280;5404;42.656;23.336;2023-05-08T09:10:18;94941.69;;;21.46;100.00
10706;BME280;5404;42.656;23.336;2023-05-08T09:12:44;94946.63;;;21.21;100.00
10706;BME280;5404;42.656;23.336;2023-05-08T09:15:10;94943.72;;;21.11;100.00
10706;BME280;5404;42.656;23.336;2023-05-08T09:17:36;94941.41;;;20.94;100.00
10706;BME280;5404;42.656;23.336;2023-05-08T09:20:01;94933.41;;;20.81;100.00
10706;BME280;5404;42.656;23.336;2023-05-08T09:22:27;94937.84;;;20.90;100.00
10706;BME280;5404;42.656;23.336;2023-05-08T09:24:56;94929.72;;;20.90;100.00
10706;BME280;5404;42.656;23.336;2023-05-08T09:27:25;94922.66;;;20.85;100.00
10706;BME280;5404;42.656;23.336;2023-05-08T09:30:02;94914.31;;;20.74;100.00
10706;BME280;5404;42.656;23.336;2023-05-08T09:32:31;94901.03;;;20.69;100.00
10706;BME280;5404;42.656;23.336;2023-05-08T09:34:58;94897.78;;;20.79;100.00
10706;BME280;5404;42.656;23.336;2023-05-08T09:37:25;94876.75;;;20.73;100.00
10706;BME280;5404;42.656;23.336;2023-05-08T09:39:51;94915.34;;;21.05;100.00
10706;BME280;5404;42.656;23.336;2023-05-08T09:42:17;94923.34;;;21.17;100.00
10706;BME280;5404;42.656;23.336;2023-05-08T09:47:18;94930.38;;;21.21;100.00
10706;BME280;5404;42.656;23.336;2023-05-08T09:50:08;94935.59;;;21.11;100.00
10706;BME280;5404;42.656;23.336;2023-05-08T09:52:36;94936.31;;;21.08;100.00
10706;BME280;5404;42.656;23.336;2023-05-08T09:55:09;94944.44;;;21.27;100.00
10706;BME280;5404;42.656;23.336;2023-05-08T09:57:38;94923.72;;;21.38;100.00
10706;BME280;5404;42.656;23.336;2023-05-08T10:00:11;94935.81;;;21.63;100.00
10706;BME280;5404;42.656;23.336;2023-05-08T10:02:39;94906.47;;;21.68;100.00
10706;BME280;5404;42.656;23.336;2023-05-08T10:07:57;94920.72;;;22.33;100.00
10706;BME280;5404;42.656;23.336;2023-05-08T10:10:27;94920.78;;;22.37;100.00
10706;BME280;5404;42.656;23.336;2023-05-08T10:12:54;94930.41;;;22.34;100.00
10706;BME280;5404;42.656;23.336;2023-05-08T10:15:27;94913.56;;;22.22;100.00
10706;BME280;5404;42.656;23.336;2023-05-08T10:17:53;94925.50;;;22.17;100.00
10706;BME280;5404;42.656;23.336;2023-05-08T10:20:19;94922.47;;;21.96;100.00
10706;BME280;5404;42.656;23.336;2023-05-08T10:22:47;94914.03;;;22.01;100.00
10706;BME280;5404;42.656;23.336;2023-05-08T10:25:18;94915.91;;;22.23;100.00
10706;BME280;5404;42.656;23.336;2023-05-08T10:27:51;94902.75;;;22.25;100.00
10706;BME280;5404;42.656;23.336;2023-05-08T10:30:23;94914.00;;;22.24;100.00
10706;BME280;5404;42.656;23.336;2023-05-08T10:32:50;94893.50;;;22.30;100.00
10706;BME280;5404;42.656;23.336;2023-05-08T10:35:19;94908.97;;;22.52;100.00
10706;BME280;5404;42.656;23.336;2023-05-08T10:37:47;94860.88;;;22.26;100.00
10706;BME280;5404;42.656;23.336;2023-05-08T10:40:14;94898.09;;;22.52;100.00
10706;BME280;5404;42.656;23.336;2023-05-08T10:42:40;94895.94;;;22.90;100.00
10706;BME280;5404;42.656;23.336;2023-05-08T10:45:07;94862.50;;;23.20;100.00
10706;BME280;5404;42.656;23.336;2023-05-08T10:50:52;94893.44;;;23.45;100.00
10706;BME280;5404;42.656;23.336;2023-05-08T10:53:41;94885.25;;;23.41;100.00
10706;BME280;5404;42.656;23.336;2023-05-08T10:56:08;94883.16;;;23.64;100.00
10706;BME280;5404;42.656;23.336;2023-05-08T10:58:35;94880.94;;;23.73;100.00
10706;BME280;5404;42.656;23.336;2023-05-08T11:03:41;94875.06;;;23.71;100.00
10706;BME280;5404;42.656;23.336;2023-05-08T11:06:07;94877.75;;;23.68;100.00
10706;BME280;5404;42.656;23.336;2023-05-08T11:08:51;94867.06;;;23.92;100.00
10706;BME280;5404;42.656;23.336;2023-05-08T11:11:30;94863.75;;;24.13;100.00
10706;BME280;5404;42.656;23.336;2023-05-08T11:14:08;94859.50;;;24.15;99.52
10706;BME280;5404;42.656;23.336;2023-05-08T11:19:23;94862.56;;;24.07;100.00
10706;BME280;5404;42.656;23.336;2023-05-08T11:24:37;94839.03;;;24.39;96.47
10706;BME280;5404;42.656;23.336;2023-05-08T11:27:03;94842.78;;;24.78;93.54
10706;BME280;5404;42.656;23.336;2023-05-08T11:29:30;94834.97;;;24.80;91.04
10706;BME280;5404;42.656;23.336;2023-05-08T11:31:55;94833.31;;;24.65;90.11
10706;BME280;5404;42.656;23.336;2023-05-08T11:34:46;94827.50;;;24.67;90.64
10706;BME280;5404;42.656;23.336;2023-05-08T11:37:22;94826.78;;;24.77;92.61
10706;BME280;5404;42.656;23.336;2023-05-08T11:39:51;94823.69;;;24.85;90.42
10706;BME280;5404;42.656;23.336;2023-05-08T11:47:43;94803.47;;;24.90;92.68
10706;BME280;5404;42.656;23.336;2023-05-08T11:50:11;94818.97;;;24.72;90.27
10706;BME280;5404;42.656;23.336;2023-05-08T11:52:38;94792.09;;;24.70;91.44
10706;BME280;5404;42.656;23.336;2023-05-08T11:55:06;94797.59;;;24.81;86.01
10706;BME280;5404;42.656;23.336;2023-05-08T11:57:32;94793.69;;;24.75;88.26
10706;BME280;5404;42.656;23.336;2023-05-08T12:00:11;94791.75;;;24.82;84.57
10706;BME280;5404;42.656;23.336;2023-05-08T12:02:39;94750.47;;;24.80;79.02
10706;BME280;5404;42.656;23.336;2023-05-08T12:05:07;94783.59;;;24.86;81.07
10706;BME280;5404;42.656;23.336;2023-05-08T12:07:45;94785.06;;;24.66;77.49
10706;BME280;5404;42.656;23.336;2023-05-08T12:10:14;94783.19;;;24.80;75.13
10706;BME280;5404;42.656;23.336;2023-05-08T12:12:41;94779.31;;;24.78;77.81
10706;BME280;5404;42.656;23.336;2023-05-08T12:15:12;94773.09;;;24.84;76.53
10706;BME280;5404;42.656;23.336;2023-05-08T12:17:38;94774.66;;;24.92;72.48
10706;BME280;5404;42.656;23.336;2023-05-08T12:20:15;94767.63;;;24.81;71.86
10706;BME280;5404;42.656;23.336;2023-05-08T12:22:48;94778.41;;;24.56;78.17
10706;BME280;5404;42.656;23.336;2023-05-08T12:25:19;94773.22;;;24.23;78.93
10706;BME280;5404;42.656;23.336;2023-05-08T12:27:45;94775.28;;;23.89;84.37
10706;BME280;5404;42.656;23.336;2023-05-08T12:30:12;94784.38;;;23.57;86.33
10706;BME280;5404;42.656;23.336;2023-05-08T12:32:42;94759.34;;;23.34;91.14
10706;BME280;5404;42.656;23.336;2023-05-08T12:35:10;94773.16;;;23.18;89.81
10706;BME280;5404;42.656;23.336;2023-05-08T12:37:36;94766.69;;;22.93;91.96
10706;BME280;5404;42.656;23.336;2023-05-08T12:40:03;94759.75;;;22.62;98.13
10706;BME280;5404;42.656;23.336;2023-05-08T12:42:45;94766.72;;;22.63;100.00
10706;BME280;5404;42.656;23.336;2023-05-08T12:45:24;94766.06;;;22.70;98.77
10706;BME280;5404;42.656;23.336;2023-05-08T12:47:51;94759.19;;;22.83;99.69
10706;BME280;5404;42.656;23.336;2023-05-08T12:50:19;94771.13;;;23.08;94.34
10706;BME280;5404;42.656;23.336;2023-05-08T12:52:46;94774.31;;;23.21;95.37
10706;BME280;5404;42.656;23.336;2023-05-08T12:55:25;94762.41;;;22.92;99.39
10706;BME280;5404;42.656;23.336;2023-05-08T12:58:08;94747.88;;;22.77;100.00
10706;BME280;5404;42.656;23.336;2023-05-08T13:00:48;94765.94;;;22.59;100.00
10706;BME280;5404;42.656;23.336;2023-05-08T13:03:26;94754.34;;;22.66;100.00
10706;BME280;5404;42.656;23.336;2023-05-08T13:05:53;94752.19;;;22.78;99.48
10706;BME280;5404;42.656;23.336;2023-05-08T13:08:19;94737.31;;;22.69;100.00
10706;BME280;5404;42.656;23.336;2023-05-08T13:13:20;94768.72;;;23.03;100.00
10706;BME280;5404;42.656;23.336;2023-05-08T13:15:47;94761.38;;;22.70;100.00
10706;BME280;5404;42.656;23.336;2023-05-08T13:18:13;94782.03;;;22.16;100.00
10706;BME280;5404;42.656;23.336;2023-05-08T13:20:39;94779.22;;;21.56;100.00
10706;BME280;5404;42.656;23.336;2023-05-08T13:23:05;94775.97;;;21.02;100.00
10706;BME280;5404;42.656;23.336;2023-05-08T13:25:33;94773.50;;;20.55;100.00
10706;BME280;5404;42.656;23.336;2023-05-08T13:27:59;94760.22;;;20.12;100.00
10706;BME280;5404;42.656;23.336;2023-05-08T13:30:25;94803.63;;;20.16;100.00
10706;BME280;5404;42.656;23.336;2023-05-08T13:32:52;94802.38;;;20.13;100.00
10706;BME280;5404;42.656;23.336;2023-05-08T13:35:18;94803.50;;;20.12;100.00
10706;BME280;5404;42.656;23.336;2023-05-08T13:37:46;94789.09;;;19.89;100.00
10706;BME280;5404;42.656;23.336;2023-05-08T13:40:13;94798.88;;;19.78;100.00
10706;BME280;5404;42.656;23.336;2023-05-08T13:42:40;94813.56;;;19.77;100.00
10706;BME280;5404;42.656;23.336;2023-05-08T13:45:07;94812.97;;;19.52;100.00